createdAt,value
2022-09-13T00:03:12.736Z,20.03
2022-09-13T00:06:37.719Z,19.45
2022-09-13T00:10:02.705Z,18.63
2022-09-13T00:13:29.761Z,18.55
2022-09-13T00:16:53.782Z,17.48
2022-09-13T00:20:17.784Z,16.88
2022-09-13T00:23:41.738Z,17.35
2022-09-13T00:27:06.693Z,17.64
2022-09-13T00:30:30.776Z,18.75
2022-09-13T00:33:54.702Z,19.15
2022-09-13T00:37:18.742Z,19.03
2022-09-13T00:40:42.697Z,18.64
2022-09-13T00:44:14.782Z,18.64
2022-09-13T00:47:52.714Z,18.81
2022-09-13T00:51:16.742Z,18.70
2022-09-13T00:54:44.716Z,19.36
2022-09-13T00:58:08.781Z,19.16
2022-09-13T01:01:34.754Z,18.84
2022-09-13T01:04:58.757Z,18.28
2022-09-13T01:08:30.742Z,18.09
2022-09-13T01:12:12.755Z,17.90
2022-09-13T01:15:37.799Z,18.75
2022-09-13T01:19:02.747Z,18.20
2022-09-13T01:23:05.713Z,18.14
2022-09-13T01:26:50.813Z,17.93
2022-09-13T01:30:20.752Z,17.81
2022-09-13T01:34:09.780Z,17.84
2022-09-13T01:37:58.760Z,17.99
2022-09-13T01:41:43.808Z,17.76
2022-09-13T01:45:50.798Z,17.76
2022-09-13T01:49:49.806Z,17.81
2022-09-13T01:53:48.864Z,19.04
2022-09-13T01:57:21.760Z,18.49
2022-09-13T02:00:50.756Z,18.13
2022-09-13T02:04:41.805Z,17.77
2022-09-13T02:08:31.831Z,17.22
2022-09-13T02:11:56.720Z,16.39
2022-09-13T02:15:25.915Z,15.93
2022-09-13T02:19:02.760Z,16.01
2022-09-13T02:22:28.777Z,16.29
2022-09-13T02:25:53.759Z,16.77
2022-09-13T02:29:24.791Z,16.89
2022-09-13T02:33:04.759Z,16.94
2022-09-13T02:36:36.821Z,16.90
2022-09-13T02:39:57.787Z,16.93
2022-09-13T02:43:36.888Z,17.02
2022-09-13T02:47:22.801Z,16.87
2022-09-13T02:50:56.818Z,16.73
2022-09-13T02:54:47.803Z,16.95
2022-09-13T02:58:36.872Z,16.97
2022-09-13T03:02:25.845Z,16.99
2022-09-13T03:05:48.807Z,17.06
2022-09-13T03:09:15.850Z,16.91
2022-09-13T03:13:07.809Z,16.98
2022-09-13T03:16:55.854Z,17.65
2022-09-13T03:20:40.772Z,17.09
2022-09-13T03:24:25.853Z,16.84
2022-09-13T03:28:32.761Z,16.50
2022-09-13T03:31:49.861Z,16.15
2022-09-13T03:35:17.795Z,15.71
2022-09-13T03:39:05.825Z,14.31
2022-09-13T03:42:36.842Z,13.74
2022-09-13T03:46:13.865Z,13.67
2022-09-13T03:49:38.814Z,13.35
2022-09-13T03:53:05.811Z,13.30
2022-09-13T03:56:32.837Z,13.46
2022-09-13T04:00:07.853Z,13.32
2022-09-13T04:03:31.796Z,13.30
2022-09-13T04:06:48.915Z,13.48
2022-09-13T04:10:13.815Z,13.58
2022-09-13T04:13:37.866Z,13.57
2022-09-13T04:17:01.789Z,13.65
2022-09-13T04:20:25.848Z,13.75
2022-09-13T04:23:49.839Z,14.08
2022-09-13T04:27:13.872Z,14.06
2022-09-13T04:30:42.015Z,13.99
2022-09-13T04:34:08.817Z,14.17
2022-09-13T04:37:31.798Z,14.36
2022-09-13T04:40:56.823Z,14.70
2022-09-13T04:44:15.443Z,14.23
2022-09-13T04:47:32.833Z,14.14
2022-09-13T04:50:55.853Z,14.26
2022-09-13T04:54:20.861Z,14.23
2022-09-13T04:57:44.849Z,14.14
2022-09-13T05:01:08.926Z,14.13
2022-09-13T05:04:32.796Z,14.15
2022-09-13T05:07:56.844Z,14.19
2022-09-13T05:11:22.815Z,14.09
2022-09-13T05:14:39.906Z,14.27
2022-09-13T05:18:03.831Z,14.35
2022-09-13T05:21:29.877Z,14.33
2022-09-13T05:24:53.886Z,14.34
2022-09-13T05:28:17.837Z,14.37
2022-09-13T05:31:47.018Z,14.30
2022-09-13T05:35:10.830Z,14.24
2022-09-13T05:38:35.906Z,14.37
2022-09-13T05:41:59.876Z,14.37
2022-09-13T05:45:24.895Z,14.44
2022-09-13T05:48:50.001Z,14.21
2022-09-13T05:52:13.919Z,14.23
2022-09-13T05:55:36.903Z,14.13
2022-09-13T05:59:03.842Z,14.14
2022-09-13T06:02:27.847Z,14.18
2022-09-13T06:05:51.895Z,14.15
2022-09-13T06:09:16.873Z,14.12
2022-09-13T06:12:40.849Z,14.17
2022-09-13T06:16:03.888Z,14.09
2022-09-13T06:19:27.855Z,13.96
2022-09-13T06:22:52.863Z,14.14
2022-09-13T06:26:26.891Z,14.02
2022-09-13T06:29:50.989Z,14.07
2022-09-13T06:33:14.844Z,13.83
2022-09-13T06:36:38.905Z,13.78
2022-09-13T06:40:02.949Z,13.93
2022-09-13T06:43:27.920Z,13.87
2022-09-13T06:46:45.535Z,13.77
2022-09-13T06:50:02.918Z,13.69
2022-09-13T06:53:27.858Z,13.69
2022-09-13T06:56:52.880Z,13.67
2022-09-13T07:00:16.901Z,13.72
2022-09-13T07:03:42.920Z,13.61
2022-09-13T07:07:07.913Z,13.58
2022-09-13T07:10:31.889Z,13.61
2022-09-13T07:13:54.926Z,13.64
2022-09-13T07:17:18.928Z,13.66
2022-09-13T07:20:41.890Z,13.62
2022-09-13T07:24:06.851Z,13.64
2022-09-13T07:27:30.910Z,13.63
2022-09-13T07:30:56.004Z,13.60
2022-09-13T07:34:21.939Z,13.47
2022-09-13T07:37:45.922Z,13.52
2022-09-13T07:41:14.911Z,13.34
2022-09-13T07:44:40.028Z,13.13
2022-09-13T07:47:57.438Z,12.92
2022-09-13T07:51:20.930Z,12.85
2022-09-13T07:54:45.859Z,12.83
2022-09-13T07:58:10.959Z,12.82
2022-09-13T08:01:42.997Z,12.70
2022-09-13T08:05:06.932Z,12.71
2022-09-13T08:08:30.902Z,12.75
2022-09-13T08:12:00.954Z,12.65
2022-09-13T08:15:24.909Z,12.56
2022-09-13T08:18:48.965Z,12.69
2022-09-13T08:22:12.881Z,12.68
2022-09-13T08:25:36.965Z,12.66
2022-09-13T08:29:00.913Z,12.63
2022-09-13T08:32:24.980Z,12.69
2022-09-13T08:35:49.891Z,12.68
2022-09-13T08:39:15.958Z,12.64
2022-09-13T08:42:51.918Z,12.70
2022-09-13T08:46:19.976Z,12.77
2022-09-13T08:49:40.524Z,12.66
2022-09-13T08:53:16.925Z,12.60
2022-09-13T08:57:01.926Z,12.58
2022-09-13T09:00:37.891Z,12.54
2022-09-13T09:04:30.979Z,12.48
2022-09-13T09:08:00.896Z,12.37
2022-09-13T09:11:52.937Z,12.41
2022-09-13T09:15:28.960Z,12.38
2022-09-13T09:18:56.937Z,12.41
2022-09-13T09:22:31.926Z,12.34
2022-09-13T09:25:55.987Z,12.39
2022-09-13T09:29:29.962Z,12.38
2022-09-13T09:33:21.955Z,12.36
2022-09-13T09:36:49.998Z,12.52
2022-09-13T09:40:18.056Z,12.45
2022-09-13T09:43:48.031Z,12.39
2022-09-13T09:47:29.543Z,12.33
2022-09-13T09:50:55.997Z,12.37
2022-09-13T09:54:20.981Z,12.25
2022-09-13T09:58:26.940Z,12.36
2022-09-13T10:01:53.037Z,12.43
2022-09-13T10:05:20.959Z,12.42
2022-09-13T10:08:50.002Z,12.42
2022-09-13T10:12:14.925Z,12.27
2022-09-13T10:15:45.985Z,12.26
2022-09-13T10:19:11.575Z,12.20
2022-09-13T10:22:37.004Z,12.10
2022-09-13T10:26:10.952Z,12.04
2022-09-13T10:29:34.985Z,11.92
2022-09-13T10:32:58.953Z,11.84
2022-09-13T10:36:53.126Z,11.79
2022-09-13T10:40:36.973Z,11.86
2022-09-13T10:44:00.937Z,11.86
2022-09-13T10:48:08.014Z,11.71
2022-09-13T10:51:45.562Z,11.80
2022-09-13T10:55:10.962Z,11.61
2022-09-13T10:58:34.982Z,11.83
2022-09-13T11:02:18.936Z,11.83
2022-09-13T11:06:20.026Z,11.63
2022-09-13T11:10:04.021Z,11.67
2022-09-13T11:13:46.136Z,11.68
2022-09-13T11:17:15.979Z,11.74
2022-09-13T11:21:15.952Z,11.67
2022-09-13T11:24:42.977Z,11.61
2022-09-13T11:28:18.957Z,11.55
2022-09-13T11:32:18.044Z,11.43
2022-09-13T11:35:59.991Z,11.31
2022-09-13T11:39:25.091Z,11.30
2022-09-13T11:43:03.960Z,11.18
2022-09-13T11:47:06.042Z,11.31
2022-09-13T11:50:38.995Z,11.29
2022-09-13T11:54:42.985Z,11.49
2022-09-13T11:58:15.035Z,11.48
2022-09-13T12:01:54.061Z,11.51
2022-09-13T12:05:35.050Z,11.56
2022-09-13T12:09:05.998Z,11.33
2022-09-13T12:12:30.001Z,11.28
2022-09-13T12:15:56.007Z,11.47
2022-09-13T12:19:35.012Z,11.55
2022-09-13T12:23:00.004Z,11.48
2022-09-13T12:26:50.046Z,11.41
2022-09-13T12:30:33.995Z,11.43
2022-09-13T12:33:58.007Z,11.37
2022-09-13T12:37:37.022Z,11.29
2022-09-13T12:41:30.009Z,11.43
2022-09-13T12:45:25.075Z,11.28
2022-09-13T12:49:04.001Z,11.25
2022-09-13T12:52:32.032Z,11.01
2022-09-13T12:56:02.042Z,10.98
2022-09-13T12:59:43.048Z,11.06
2022-09-13T13:03:19.996Z,11.01
2022-09-13T13:06:54.049Z,11.07
2022-09-13T13:10:16.995Z,11.08
2022-09-13T13:13:55.001Z,11.02
2022-09-13T13:17:49.078Z,11.20
2022-09-13T13:21:12.979Z,11.40
2022-09-13T13:24:37.073Z,11.41
2022-09-13T13:28:02.994Z,11.50
2022-09-13T13:31:47.074Z,11.47
2022-09-13T13:35:10.989Z,11.50
2022-09-13T13:38:44.016Z,11.31
2022-09-13T13:42:10.997Z,11.37
2022-09-13T13:45:41.128Z,11.27
2022-09-13T13:49:05.043Z,11.40
2022-09-13T13:52:33.002Z,11.60
2022-09-13T13:56:00.086Z,11.53
2022-09-13T13:59:31.991Z,11.39
2022-09-13T14:03:06.093Z,11.38
2022-09-13T14:06:34.988Z,11.18
2022-09-13T14:10:09.086Z,11.16
2022-09-13T14:13:44.996Z,11.14
2022-09-13T14:17:32.086Z,11.33
2022-09-13T14:21:19.022Z,11.25
2022-09-13T14:24:43.040Z,11.20
2022-09-13T14:28:12.025Z,11.28
2022-09-13T14:31:36.181Z,11.04
2022-09-13T14:35:09.018Z,11.12
2022-09-13T14:38:44.081Z,10.96
2022-09-13T14:42:22.036Z,10.82
2022-09-13T14:45:51.082Z,10.74
2022-09-13T14:49:18.013Z,10.79
2022-09-13T14:52:49.033Z,10.79
2022-09-13T14:56:19.020Z,10.78
2022-09-13T14:59:49.046Z,10.81
2022-09-13T15:03:20.026Z,10.83
2022-09-13T15:06:52.061Z,10.62
2022-09-13T15:10:29.066Z,10.54
2022-09-13T15:13:53.048Z,10.52
2022-09-13T15:17:27.103Z,10.67
2022-09-13T15:21:04.090Z,10.69
2022-09-13T15:24:48.085Z,10.82
2022-09-13T15:28:13.039Z,10.73
2022-09-13T15:31:39.159Z,10.69
2022-09-13T15:35:05.049Z,10.72
2022-09-13T15:38:42.118Z,10.62
2022-09-13T15:42:14.043Z,10.68
2022-09-13T15:45:38.093Z,10.50
2022-09-13T15:49:09.081Z,10.50
2022-09-13T15:52:35.080Z,10.42
2022-09-13T15:56:00.056Z,10.36
2022-09-13T15:59:30.106Z,10.41
2022-09-13T16:02:54.120Z,10.49
2022-09-13T16:06:18.098Z,10.45
2022-09-13T16:09:46.076Z,10.41
2022-09-13T16:13:10.075Z,10.44
2022-09-13T16:16:34.150Z,10.60
2022-09-13T16:19:57.081Z,10.69
2022-09-13T16:23:21.086Z,10.35
2022-09-13T16:26:46.088Z,10.15
2022-09-13T16:30:10.047Z,10.43
2022-09-13T16:33:34.100Z,10.29
2022-09-13T16:36:58.055Z,10.62
2022-09-13T16:40:22.189Z,10.62
2022-09-13T16:43:46.082Z,10.65
2022-09-13T16:47:09.094Z,10.57
2022-09-13T16:50:26.654Z,10.60
2022-09-13T16:53:47.103Z,10.83
2022-09-13T16:57:12.047Z,10.81
2022-09-13T17:00:37.244Z,10.73
2022-09-13T17:04:01.120Z,10.47
2022-09-13T17:07:25.149Z,10.33
2022-09-13T17:10:49.127Z,10.39
2022-09-13T17:14:13.089Z,10.43
2022-09-13T17:17:42.129Z,10.56
2022-09-13T17:21:07.100Z,10.49
2022-09-13T17:24:31.081Z,10.38
2022-09-13T17:27:55.101Z,10.46
2022-09-13T17:31:19.202Z,10.66
2022-09-13T17:34:43.102Z,10.52
2022-09-13T17:38:06.084Z,10.65
2022-09-13T17:41:33.153Z,10.58
2022-09-13T17:44:57.139Z,10.51
2022-09-13T17:48:21.103Z,10.47
2022-09-13T17:51:46.164Z,10.32
2022-09-13T17:55:11.126Z,10.13
2022-09-13T17:58:35.129Z,9.96
2022-09-13T18:02:09.166Z,9.72
2022-09-13T18:05:32.132Z,9.85
2022-09-13T18:08:56.104Z,9.91
2022-09-13T18:12:20.098Z,9.74
2022-09-13T18:15:44.228Z,9.73
2022-09-13T18:19:08.126Z,9.57
2022-09-13T18:22:33.173Z,9.56
2022-09-13T18:26:01.691Z,9.31
2022-09-13T18:29:28.130Z,9.24
2022-09-13T18:32:52.106Z,9.12
2022-09-13T18:36:20.186Z,9.03
2022-09-13T18:39:44.194Z,9.21
2022-09-13T18:43:07.175Z,9.14
2022-09-13T18:46:33.165Z,9.02
2022-09-13T18:49:58.136Z,9.19
2022-09-13T18:53:15.676Z,9.66
2022-09-13T18:56:42.135Z,9.91
2022-09-13T19:00:07.085Z,9.96
2022-09-13T19:03:30.275Z,9.74
2022-09-13T19:06:56.095Z,9.88
2022-09-13T19:10:20.157Z,9.84
2022-09-13T19:13:46.172Z,10.09
2022-09-13T19:17:12.156Z,11.16
2022-09-13T19:20:36.166Z,11.47
2022-09-13T19:24:04.051Z,12.29
2022-09-13T19:27:32.157Z,12.41
2022-09-13T19:30:58.140Z,12.13
2022-09-13T19:34:23.155Z,11.67
2022-09-13T19:37:47.156Z,11.86
2022-09-13T19:41:15.199Z,11.73
2022-09-13T19:44:39.125Z,12.16
2022-09-13T19:51:52.104Z,12.46
2022-09-13T19:55:08.709Z,12.62
2022-09-13T19:58:33.141Z,13.13
2022-09-13T20:01:59.253Z,12.74
2022-09-13T20:05:28.145Z,12.84
2022-09-13T20:08:52.155Z,12.87
2022-09-13T20:12:17.172Z,12.66
2022-09-13T20:15:42.296Z,13.64
2022-09-13T20:19:23.594Z,14.22
2022-09-13T20:22:43.208Z,14.45
2022-09-13T20:26:07.186Z,14.63
2022-09-13T20:29:32.133Z,14.87
2022-09-13T20:32:57.225Z,15.09
2022-09-13T20:36:30.142Z,15.44
2022-09-13T20:39:55.227Z,15.60
2022-09-13T20:43:19.185Z,15.88
2022-09-13T20:46:42.184Z,16.13
2022-09-13T20:50:07.196Z,16.70
2022-09-13T20:53:30.220Z,16.54
2022-09-13T20:56:54.137Z,16.46
2022-09-13T21:00:20.193Z,16.50
2022-09-13T21:03:44.144Z,17.10
2022-09-13T21:07:26.227Z,16.15
2022-09-13T21:10:50.188Z,17.17
2022-09-13T21:14:19.196Z,16.85
2022-09-13T21:17:43.156Z,16.94
2022-09-13T21:21:11.232Z,16.76
2022-09-13T21:24:35.176Z,16.23
2022-09-13T21:28:00.191Z,16.42
2022-09-13T21:31:30.298Z,17.05
2022-09-13T21:34:54.241Z,16.91
2022-09-13T21:38:18.213Z,17.77
2022-09-13T21:41:43.228Z,17.79
2022-09-13T21:45:07.175Z,18.30
2022-09-13T21:48:31.241Z,18.78
2022-09-13T21:52:03.231Z,16.50
2022-09-13T21:55:27.248Z,14.21
2022-09-13T21:58:52.187Z,13.69
2022-09-13T22:02:16.283Z,13.03
2022-09-13T22:05:39.226Z,13.29
2022-09-13T22:09:08.192Z,13.96
2022-09-13T22:12:32.188Z,14.78
2022-09-13T22:15:56.243Z,16.24
2022-09-13T22:19:28.228Z,16.47
2022-09-13T22:22:52.244Z,16.71
2022-09-13T22:26:19.187Z,17.27
2022-09-13T22:29:43.223Z,17.58
2022-09-13T22:33:07.232Z,17.45
2022-09-13T22:36:32.229Z,18.00
2022-09-13T22:39:56.294Z,18.24
2022-09-13T22:43:21.223Z,18.55
2022-09-13T22:46:50.266Z,18.07
2022-09-13T22:50:14.285Z,18.50
2022-09-13T22:53:38.221Z,18.88
2022-09-13T22:57:02.244Z,19.33
2022-09-13T23:00:27.264Z,18.90
2022-09-13T23:03:52.461Z,18.59
2022-09-13T23:07:17.267Z,19.59
2022-09-13T23:10:41.255Z,19.14
2022-09-13T23:14:07.266Z,19.62
2022-09-13T23:17:30.258Z,18.46
2022-09-13T23:20:54.279Z,18.09
2022-09-13T23:24:19.212Z,18.71
2022-09-13T23:27:43.234Z,17.83
2022-09-13T23:31:07.232Z,16.85
2022-09-13T23:34:31.236Z,15.15
2022-09-13T23:37:57.281Z,14.33
2022-09-13T23:41:21.217Z,14.25
2022-09-13T23:44:45.297Z,14.18
2022-09-13T23:48:09.278Z,14.16
2022-09-13T23:51:39.295Z,14.80
2022-09-13T23:55:05.235Z,15.60
2022-09-13T23:58:29.286Z,16.07
